• Join FlightAware (Why Join?)
  • Login
  • US Flag 
02:48PM EDT


 

Airport Tracker/Info


-or-


 

Live Flight TrackerFlight Track Log ✈ AWE3418 ✈ 26-Apr-2013 ✈ KPHL - KMHT

Flight Track Log - Related Links

Times and Time Zones

All times are in EDT time to prevent confusion due to time zone crossing. See the AWE3418 flight status page for this flight to view local times or setup timezone preferences in your user account.

Time Position Orientation Groundspeed Altitude Reporting Facility
EDT Latitude Longitude Course Direction KTS MPH feet Rate Location/Type
06:53PM 39.8667 -75.2833 37° Northeast 168 193 800  Level Philadelphia TRACON
06:54PM 39.8167 -75.3167 207° Southwest 215 247 2,800 2,520 Climbing Philadelphia TRACON
06:55PM 39.8167 -74.9315 90° East  Level FlightAware Approximate
06:55PM 39.7667 -75.3667 218° Southwest 259 298 5,900  Level Philadelphia TRACON
06:56PM 39.8087 -74.8268 105° East  Level FlightAware Approximate
06:56PM 39.7000 -75.3833 191° South 292 336 9,400  Level Philadelphia TRACON
06:57PM 39.7882 -74.7242 105° East  Level FlightAware Approximate
06:57PM 39.6833 -75.2833 102° East 357 411 11,000  Level Philadelphia TRACON
06:58PM 39.8327 -74.6507 37° Northeast  Level FlightAware Approximate
06:58PM 39.7167 -75.1333 74° East 380 437 12,000  Level Philadelphia TRACON
07:00PM 39.7647 -74.8786 76° East 379 436 12,000 840 Level New York Center
07:01PM 39.7947 -74.7317 75° East 379 436 14,800 2,520 Climbing New York Center
07:02PM 39.8753 -74.6333 43° Northeast 366 421 17,100 2,100 Climbing New York Center
07:03PM 39.9633 -74.5489 36° Northeast 366 421 19,000 1,860 Climbing New York Center
07:04PM 40.0558 -74.4592 37° Northeast 392 451 20,900 1,860 Climbing New York Center
07:05PM 40.1506 -74.3636 38° Northeast 411 473 22,800 1,800 Climbing New York Center
07:06PM 40.2492 -74.2708 36° Northeast 426 490 24,500 1,620 Climbing New York Center
07:07PM 40.3594 -74.2083 23° Northeast 426 490 26,000 1,320 Climbing New York Center
07:08PM 40.4736 -74.1542 20° North 426 490 27,200 840 Climbing New York Center
07:10PM 40.7472 -74.0125 21° North 463 533 29,000 480 Climbing Boston Center
07:11PM 40.8794 -73.9472 20° North 463 533 29,000  Level Boston Center
07:12PM 40.9992 -73.8811 23° Northeast 463 533 29,000  Level Boston Center
07:13PM 41.1228 -73.8150 22° Northeast 463 533 29,000  Level Boston Center
07:14PM 41.2458 -73.8011 North 452 520 29,000  Level Boston Center
07:15PM 41.3731 -73.8067 358° North 447 514 29,000  Level Boston Center
07:16PM 41.4981 -73.8147 357° North 442 509 29,000  Level Boston Center
07:17PM 41.6231 -73.8203 358° North 442 509 29,000  Level Boston Center
07:18PM 41.7481 -73.8203 360° North 442 509 29,000  Level Boston Center
07:19PM 41.8583 -73.8225 359° North 433 498 29,000 -660 Level Boston Center
07:20PM 41.9800 -73.7667 19° North 441 507 27,700 -1,320 Descending Boston Center
07:21PM 42.1122 -73.6939 22° Northeast 446 513 26,400 -1,380 Descending Boston Center
07:22PM 42.2275 -73.6344 21° North 450 518 25,000 -1,380 Descending Boston Center
07:23PM 42.3344 -73.5550 29° Northeast 440 506 23,700 -1,320 Descending Boston Center
07:24PM 42.3942 -73.4156 60° Northeast 412 474 22,400 -1,380 Descending Boston Center
07:25PM 42.4494 -73.2589 64° Northeast 437 503 21,000 -1,380 Descending Boston Center
07:26PM 42.5006 -73.1131 65° Northeast 429 494 19,700 -1,020 Descending Boston Center
07:27PM 42.5514 -72.9700 64° Northeast 419 482 19,000 -360 Descending Boston Center
07:28PM 42.6039 -72.8294 63° Northeast 419 482 19,000 -720 Level Boston Center
07:29PM 42.6564 -72.6856 64° Northeast 419 482 17,600 -1,620 Descending Boston Center
07:30PM 42.7047 -72.5475 64° Northeast 419 482 15,800 -1,560 Descending Boston Center
07:31PM 42.7483 -72.4258 64° Northeast 413 475 14,500 -1,500 Descending Boston Center
07:32PM 42.7942 -72.2900 65° Northeast 398 458 12,900 -1,740 Descending Boston Center
07:33PM 42.8044 -72.1372 85° East 372 428 11,100 -1,500 Descending Boston Center
07:34PM 42.8289 -72.0239 74° East 333 383 9,900 -1,800 Descending Boston Center
07:35PM 42.8703 -71.9303 59° Northeast 283 326 7,600 -2,040 Descending Boston Center
07:36PM 42.9053 -71.8392 62° Northeast 275 316 5,900 -1,800 Descending Boston Center
07:37PM 42.9422 -71.7508 60° Northeast 269 310 4,000 -1,320 Descending Boston Center
07:38PM 42.9731 -71.6683 63° Northeast 257 296 3,300 -900 Descending Boston Center
07:39PM 43.0039 -71.5969 59° Northeast 229 264 2,200 -720 Descending Boston Center
07:40PM 43.0242 -71.5286 68° East 200 230 1,900 -300 Descending Boston Center